Time;durP1;ratioP1;P1;durP2;ratioP2;P2;SDS_P1;SDS_P2;PMS_P1;PMS_P2;Temp;Humidity;BMP_temperature;BMP_pressure;BME280_temperature;BME280_humidity;BME280_pressure;Samples;Min_cycle;Max_cycle;Signal;HPM_P1;HPM_P2
2023/08/04 00:01:49;;;;;;;;;;;17.50;98.20;;;;;;5089580;28;19927;-69
2023/08/04 00:04:15;;;;;;;;;;;17.50;98.20;;;;;;5069423;28;19916;-69
2023/08/04 00:06:40;;;;;;;;;;;17.50;98.10;;;;;;5087161;28;20397;-70
2023/08/04 00:09:05;;;;;;;;;;;17.50;98.10;;;;;;5089151;28;20369;-69
2023/08/04 00:11:31;;;;;;;;;;;17.50;98.10;;;;;;5087872;28;19912;-69
2023/08/04 00:13:56;;;;;;;;;;;17.50;98.10;;;;;;5087560;28;20009;-70
2023/08/04 00:16:22;;;;;;;;;;;17.50;98.20;;;;;;5087285;28;19918;-69
2023/08/04 00:18:47;;;;;;;;;;;17.50;98.20;;;;;;5086997;28;19916;-69
2023/08/04 00:21:13;;;;;;;;;;;17.50;98.20;;;;;;5086320;28;19966;-70
2023/08/04 00:23:38;;;;;;;;;;;17.50;98.20;;;;;;5088795;28;19912;-70
2023/08/04 00:26:04;;;;;;;;;;;17.50;98.20;;;;;;5107382;28;20565;-70
2023/08/04 00:28:29;;;;;;;;;;;17.40;98.20;;;;;;5087641;28;19912;-69
2023/08/04 00:30:55;;;;;;;;;;;17.50;98.20;;;;;;5087897;28;19912;-69
2023/08/04 00:33:22;;;;;;;;;;;17.50;98.20;;;;;;5069382;28;19977;-69
2023/08/04 00:35:47;;;;;;;;;;;17.50;98.20;;;;;;5068962;28;20378;-69
2023/08/04 00:38:13;;;;;;;;;;;17.50;98.20;;;;;;5087606;28;19912;-70
2023/08/04 00:40:38;;;;;;;;;;;17.50;98.20;;;;;;5095324;28;19927;-69
2023/08/04 00:43:04;;;;;;;;;;;17.40;98.20;;;;;;5108108;28;19981;-70
2023/08/04 00:45:30;;;;;;;;;;;17.40;98.20;;;;;;5107814;28;19916;-69
2023/08/04 00:47:56;;;;;;;;;;;17.40;98.20;;;;;;5107852;28;19911;-70
2023/08/04 00:50:22;;;;;;;;;;;17.40;98.20;;;;;;5090472;28;19994;-69
2023/08/04 00:52:48;;;;;;;;;;;17.40;98.20;;;;;;5087257;28;19913;-69
2023/08/04 00:55:15;;;;;;;;;;;17.40;98.20;;;;;;5072954;28;20023;-70
2023/08/04 00:57:40;;;;;;;;;;;17.40;98.20;;;;;;5082554;28;19916;-70
2023/08/04 01:00:06;;;;;;;;;;;17.40;98.30;;;;;;5081089;28;19913;-70
2023/08/04 01:02:32;;;;;;;;;;;17.40;98.20;;;;;;5086927;28;19912;-69
2023/08/04 01:04:59;;;;;;;;;;;17.40;98.30;;;;;;5087401;28;19912;-69
2023/08/04 01:07:25;;;;;;;;;;;17.40;98.20;;;;;;5087226;28;20498;-70
2023/08/04 01:10:03;;;;;;;;;;;17.40;98.30;;;;;;5087247;28;20051;-70
2023/08/04 01:12:39;;;;;;;;;;;17.40;98.20;;;;;;5087299;28;19908;-70
2023/08/04 01:15:04;;;;;;;;;;;17.40;98.20;;;;;;5088663;28;19916;-69
2023/08/04 01:17:31;;;;;;;;;;;17.30;98.20;;;;;;5086954;28;19919;-69
2023/08/04 01:19:57;;;;;;;;;;;17.40;98.30;;;;;;5087165;28;20453;-69
2023/08/04 01:22:24;;;;;;;;;;;17.30;98.20;;;;;;5087270;28;19912;-70
2023/08/04 01:24:50;;;;;;;;;;;17.30;98.30;;;;;;5076088;28;20036;-69
2023/08/04 01:27:17;;;;;;;;;;;17.30;98.30;;;;;;5077609;28;19912;-69
2023/08/04 01:29:44;;;;;;;;;;;17.30;98.30;;;;;;5091336;28;19914;-69
2023/08/04 01:32:10;;;;;;;;;;;17.40;98.40;;;;;;5088156;28;19919;-68
2023/08/04 01:34:36;;;;;;;;;;;17.30;98.30;;;;;;5090686;28;19920;-68
2023/08/04 01:37:01;;;;;;;;;;;17.30;98.30;;;;;;5088457;28;19912;-70
2023/08/04 01:39:27;;;;;;;;;;;17.30;98.30;;;;;;5086231;28;20521;-69
2023/08/04 01:41:52;;;;;;;;;;;17.30;98.40;;;;;;5090666;28;20304;-69
2023/08/04 01:44:18;;;;;;;;;;;17.30;98.30;;;;;;5091012;28;19908;-69
2023/08/04 01:46:43;;;;;;;;;;;17.30;98.30;;;;;;5091664;28;19912;-69
2023/08/04 01:49:09;;;;;;;;;;;17.20;98.40;;;;;;5090617;28;20011;-70
2023/08/04 01:51:35;;;;;;;;;;;17.20;98.40;;;;;;5090566;28;19912;-69
2023/08/04 01:54:01;;;;;;;;;;;17.30;98.40;;;;;;5090421;28;19913;-69
2023/08/04 01:56:26;;;;;;;;;;;17.20;98.40;;;;;;5090177;28;19912;-69
2023/08/04 01:58:52;;;;;;;;;;;17.20;98.40;;;;;;5106835;28;19956;-69
2023/08/04 02:01:18;;;;;;;;;;;17.20;98.40;;;;;;5091617;28;20002;-69
2023/08/04 02:03:43;;;;;;;;;;;17.20;98.40;;;;;;5091327;28;19916;-70
2023/08/04 02:06:08;;;;;;;;;;;17.20;98.40;;;;;;5089673;28;19912;-69
2023/08/04 02:08:34;;;;;;;;;;;17.20;98.70;;;;;;5090189;28;19912;-69
2023/08/04 02:10:59;;;;;;;;;;;17.20;98.40;;;;;;5089716;28;20258;-69
2023/08/04 02:13:25;;;;;;;;;;;17.20;98.40;;;;;;5091100;28;19916;-70
2023/08/04 02:15:50;;;;;;;;;;;17.20;98.50;;;;;;5090113;28;19959;-69
2023/08/04 02:18:16;;;;;;;;;;;17.20;98.40;;;;;;5071677;28;19919;-70
2023/08/04 02:20:41;;;;;;;;;;;17.20;98.50;;;;;;5091144;28;19920;-69
2023/08/04 02:23:08;;;;;;;;;;;17.20;98.80;;;;;;5089814;28;19912;-70
2023/08/04 02:25:33;;;;;;;;;;;17.20;98.50;;;;;;5072355;28;20704;-69
2023/08/04 02:27:59;;;;;;;;;;;17.20;98.60;;;;;;5069682;28;20011;-69
2023/08/04 02:30:25;;;;;;;;;;;17.20;98.50;;;;;;5069433;28;19916;-69
2023/08/04 02:32:50;;;;;;;;;;;17.20;98.50;;;;;;5069723;28;19908;-69
2023/08/04 02:35:16;;;;;;;;;;;17.20;98.50;;;;;;5080117;28;19916;-69
2023/08/04 02:37:41;;;;;;;;;;;17.20;98.50;;;;;;5095323;28;20398;-70
2023/08/04 02:40:07;;;;;;;;;;;17.10;98.50;;;;;;5090039;28;19923;-69
2023/08/04 02:42:32;;;;;;;;;;;17.10;98.50;;;;;;5088324;28;19981;-69
2023/08/04 02:44:58;;;;;;;;;;;17.10;98.50;;;;;;5089647;28;19934;-69
2023/08/04 02:47:23;;;;;;;;;;;17.20;98.60;;;;;;5089240;28;19999;-70
2023/08/04 02:49:49;;;;;;;;;;;17.10;98.60;;;;;;5089460;28;19999;-69
2023/08/04 02:52:16;;;;;;;;;;;17.10;98.60;;;;;;5090365;28;19916;-70
2023/08/04 02:54:42;;;;;;;;;;;17.10;98.60;;;;;;5079204;28;20373;-69
2023/08/04 02:57:08;;;;;;;;;;;17.10;98.60;;;;;;5069597;28;19908;-69
2023/08/04 02:59:33;;;;;;;;;;;17.10;98.60;;;;;;5089238;28;19919;-69
2023/08/04 03:01:58;;;;;;;;;;;17.10;98.60;;;;;;5088763;28;20261;-69
2023/08/04 03:04:24;;;;;;;;;;;17.10;98.60;;;;;;5089185;28;19965;-69
2023/08/04 03:06:50;;;;;;;;;;;17.10;98.60;;;;;;5088648;28;19951;-69
2023/08/04 03:09:15;;;;;;;;;;;17.10;98.60;;;;;;5104042;28;19919;-70
2023/08/04 03:11:41;;;;;;;;;;;17.10;98.60;;;;;;5109279;28;19948;-70
2023/08/04 03:14:07;;;;;;;;;;;17.10;98.60;;;;;;5109318;28;19947;-70
2023/08/04 03:16:32;;;;;;;;;;;17.10;98.60;;;;;;5108747;28;19959;-69
2023/08/04 03:18:58;;;;;;;;;;;17.10;98.60;;;;;;5097881;28;19992;-69
2023/08/04 03:21:23;;;;;;;;;;;17.10;98.70;;;;;;5068618;28;19912;-70
2023/08/04 03:23:49;;;;;;;;;;;17.00;98.90;;;;;;5103173;28;20538;-69
2023/08/04 03:26:14;;;;;;;;;;;17.00;98.70;;;;;;5088385;28;20350;-69
2023/08/04 03:28:40;;;;;;;;;;;17.00;98.60;;;;;;5088930;28;20574;-70
2023/08/04 03:31:05;;;;;;;;;;;17.00;98.60;;;;;;5070355;28;19912;-70
2023/08/04 03:33:31;;;;;;;;;;;17.10;98.70;;;;;;5088651;28;20422;-69
2023/08/04 03:35:56;;;;;;;;;;;17.00;98.60;;;;;;5088722;28;20560;-70
2023/08/04 03:38:22;;;;;;;;;;;17.00;98.60;;;;;;5088319;28;19939;-70
2023/08/04 03:40:47;;;;;;;;;;;17.00;98.70;;;;;;5088564;28;19926;-69
2023/08/04 03:43:13;;;;;;;;;;;17.00;98.70;;;;;;5088117;28;19912;-70
2023/08/04 03:45:38;;;;;;;;;;;17.00;98.70;;;;;;5088249;28;19920;-69
2023/08/04 03:48:04;;;;;;;;;;;17.00;98.70;;;;;;5088265;28;19908;-70
2023/08/04 03:50:30;;;;;;;;;;;17.00;98.70;;;;;;5096312;28;20360;-70
2023/08/04 03:52:55;;;;;;;;;;;17.00;98.70;;;;;;5108266;28;20287;-70
2023/08/04 03:55:21;;;;;;;;;;;17.00;98.70;;;;;;5092511;28;20019;-70
2023/08/04 03:57:46;;;;;;;;;;;17.00;98.70;;;;;;5089293;28;19911;-70
2023/08/04 04:00:12;;;;;;;;;;;17.00;98.70;;;;;;5093500;28;20016;-70
2023/08/04 04:02:38;;;;;;;;;;;17.00;98.70;;;;;;5087737;28;19916;-70
2023/08/04 04:05:03;;;;;;;;;;;16.90;98.70;;;;;;5088602;28;20284;-70
2023/08/04 04:07:29;;;;;;;;;;;16.90;98.70;;;;;;5087566;28;20023;-70
2023/08/04 04:09:54;;;;;;;;;;;16.90;98.70;;;;;;5088227;28;19912;-70
2023/08/04 04:12:20;;;;;;;;;;;16.90;98.70;;;;;;5088202;28;20001;-70
2023/08/04 04:14:45;;;;;;;;;;;16.90;98.70;;;;;;5087963;28;19995;-70
2023/08/04 04:17:11;;;;;;;;;;;17.00;98.70;;;;;;5087845;28;19922;-70
2023/08/04 04:19:36;;;;;;;;;;;16.90;98.80;;;;;;5087551;28;20025;-70
2023/08/04 04:22:02;;;;;;;;;;;16.90;98.80;;;;;;5074427;28;19921;-69
2023/08/04 04:24:27;;;;;;;;;;;16.90;98.80;;;;;;5083497;28;20041;-69
2023/08/04 04:26:53;;;;;;;;;;;16.90;98.80;;;;;;5087093;28;20356;-69
2023/08/04 04:29:18;;;;;;;;;;;16.90;98.80;;;;;;5087722;28;19994;-69
2023/08/04 04:31:44;;;;;;;;;;;16.90;98.80;;;;;;5090889;28;20085;-69
2023/08/04 04:34:10;;;;;;;;;;;16.90;98.80;;;;;;5100649;28;20029;-69
2023/08/04 04:36:35;;;;;;;;;;;16.90;98.80;;;;;;5087614;28;19916;-70
2023/08/04 04:39:01;;;;;;;;;;;16.90;98.80;;;;;;5087369;28;19912;-69
2023/08/04 04:41:27;;;;;;;;;;;16.90;98.80;;;;;;5073966;28;19916;-69
2023/08/04 04:43:53;;;;;;;;;;;16.90;98.80;;;;;;5067284;28;19986;-69
2023/08/04 04:46:19;;;;;;;;;;;16.90;98.80;;;;;;5066123;28;19920;-70
2023/08/04 04:48:44;;;;;;;;;;;16.90;98.80;;;;;;5100387;28;19995;-69
2023/08/04 04:51:09;;;;;;;;;;;16.90;98.70;;;;;;5067218;28;19940;-69
2023/08/04 04:53:35;;;;;;;;;;;16.90;98.80;;;;;;5048506;28;20338;-70
2023/08/04 04:56:00;;;;;;;;;;;16.90;98.80;;;;;;5086689;28;19912;-70
2023/08/04 04:58:26;;;;;;;;;;;16.90;98.80;;;;;;5087494;28;19919;-70
2023/08/04 05:00:51;;;;;;;;;;;16.90;98.80;;;;;;5087021;28;19955;-69
2023/08/04 05:03:17;;;;;;;;;;;16.90;98.80;;;;;;5087393;28;20450;-69
2023/08/04 05:05:44;;;;;;;;;;;16.90;98.80;;;;;;5089024;28;20304;-71
2023/08/04 05:08:10;;;;;;;;;;;16.90;98.80;;;;;;5091024;28;19920;-69
2023/08/04 05:10:35;;;;;;;;;;;16.90;98.80;;;;;;5091098;28;19915;-69
2023/08/04 05:13:01;;;;;;;;;;;16.90;98.80;;;;;;5091169;28;19947;-69
2023/08/04 05:15:26;;;;;;;;;;;16.90;98.80;;;;;;5109779;28;19916;-69
2023/08/04 05:17:51;;;;;;;;;;;16.90;98.80;;;;;;5101054;28;20638;-70
2023/08/04 05:20:17;;;;;;;;;;;16.90;98.80;;;;;;5090845;28;19916;-70
2023/08/04 05:22:43;;;;;;;;;;;16.90;98.80;;;;;;5090659;28;20293;-69
2023/08/04 05:25:08;;;;;;;;;;;16.90;98.80;;;;;;5072711;28;19942;-69
2023/08/04 05:27:34;;;;;;;;;;;17.00;98.80;;;;;;5087713;28;20056;-70
2023/08/04 05:30:00;;;;;;;;;;;16.90;98.80;;;;;;5091082;28;20467;-69
2023/08/04 05:32:26;;;;;;;;;;;17.00;98.70;;;;;;5090609;28;19916;-70
2023/08/04 05:34:53;;;;;;;;;;;17.00;98.70;;;;;;5089938;28;21480;-69
2023/08/04 05:37:19;;;;;;;;;;;16.90;98.70;;;;;;5090336;28;20016;-70
2023/08/04 05:39:44;;;;;;;;;;;17.00;98.80;;;;;;5090683;28;19939;-69
2023/08/04 05:42:10;;;;;;;;;;;17.00;98.80;;;;;;5090612;28;19923;-69
2023/08/04 05:44:35;;;;;;;;;;;17.00;98.80;;;;;;5090946;28;19909;-70
2023/08/04 05:47:01;;;;;;;;;;;17.00;98.80;;;;;;5106768;28;19916;-69
2023/08/04 05:49:26;;;;;;;;;;;17.00;98.80;;;;;;5091938;28;19919;-69
2023/08/04 05:51:52;;;;;;;;;;;17.00;98.80;;;;;;5069769;28;19966;-70
2023/08/04 05:54:17;;;;;;;;;;;17.00;98.70;;;;;;5079813;28;19915;-69
2023/08/04 05:56:42;;;;;;;;;;;17.00;98.70;;;;;;5110530;28;19912;-71
2023/08/04 05:59:08;;;;;;;;;;;17.00;98.70;;;;;;5110418;28;20025;-70
2023/08/04 06:01:33;;;;;;;;;;;17.10;98.80;;;;;;5089520;28;19938;-69
2023/08/04 06:03:59;;;;;;;;;;;17.10;98.80;;;;;;5089887;28;19915;-69
2023/08/04 06:06:25;;;;;;;;;;;17.10;98.80;;;;;;5089745;28;19919;-69
2023/08/04 06:08:50;;;;;;;;;;;17.10;98.80;;;;;;5090489;28;19916;-69
2023/08/04 06:11:16;;;;;;;;;;;17.10;99.00;;;;;;5090114;28;20345;-70
2023/08/04 06:13:41;;;;;;;;;;;17.10;98.80;;;;;;5090203;28;19958;-69
2023/08/04 06:16:07;;;;;;;;;;;17.20;98.70;;;;;;5089663;28;19912;-69
2023/08/04 06:18:32;;;;;;;;;;;17.20;98.80;;;;;;5089924;28;20273;-69
2023/08/04 06:20:58;;;;;;;;;;;17.20;98.70;;;;;;5087873;28;19969;-70
2023/08/04 06:23:23;;;;;;;;;;;17.20;98.70;;;;;;5072722;28;20253;-69
2023/08/04 06:25:49;;;;;;;;;;;17.30;98.70;;;;;;5089980;28;19920;-69
2023/08/04 06:28:14;;;;;;;;;;;17.30;98.60;;;;;;5088499;28;19919;-70
2023/08/04 06:30:40;;;;;;;;;;;17.30;98.60;;;;;;5085085;28;19916;-70
2023/08/04 06:33:05;;;;;;;;;;;17.30;98.60;;;;;;5090003;28;19919;-69
2023/08/04 06:35:31;;;;;;;;;;;17.40;98.50;;;;;;5089662;28;19912;-70
2023/08/04 06:37:57;;;;;;;;;;;17.40;98.50;;;;;;5089800;28;20022;-70
2023/08/04 06:40:22;;;;;;;;;;;17.40;98.50;;;;;;5089634;28;20464;-70
2023/08/04 06:42:48;;;;;;;;;;;17.40;98.40;;;;;;5089772;28;19918;-69
2023/08/04 06:45:13;;;;;;;;;;;17.50;98.40;;;;;;5089672;28;19939;-70
2023/08/04 06:47:39;;;;;;;;;;;17.50;98.40;;;;;;5089054;28;20353;-69
2023/08/04 06:50:05;;;;;;;;;;;17.60;98.40;;;;;;5093257;28;19999;-70
2023/08/04 06:52:30;;;;;;;;;;;17.60;98.30;;;;;;5109623;28;19919;-69
2023/08/04 06:54:56;;;;;;;;;;;17.60;98.40;;;;;;5097613;28;19912;-71
2023/08/04 06:57:21;;;;;;;;;;;17.70;98.40;;;;;;5089097;28;19916;-70
2023/08/04 06:59:47;;;;;;;;;;;17.70;98.40;;;;;;5088676;28;19912;-70
2023/08/04 07:02:12;;;;;;;;;;;17.70;98.50;;;;;;5088758;28;19916;-71
2023/08/04 07:04:38;;;;;;;;;;;17.80;98.40;;;;;;5088994;28;20293;-71
2023/08/04 07:07:04;;;;;;;;;;;17.80;98.40;;;;;;5070522;28;19955;-69
2023/08/04 07:09:29;;;;;;;;;;;17.70;98.40;;;;;;5089117;28;19935;-71
2023/08/04 07:11:55;;;;;;;;;;;17.80;98.30;;;;;;5089067;28;19962;-69
2023/08/04 07:14:21;;;;;;;;;;;17.80;98.30;;;;;;5089010;28;19951;-69
2023/08/04 07:16:46;;;;;;;;;;;17.80;98.40;;;;;;5088667;28;19989;-69
2023/08/04 07:19:12;;;;;;;;;;;17.80;98.30;;;;;;5087972;28;20360;-69
2023/08/04 07:21:38;;;;;;;;;;;17.90;98.40;;;;;;5050578;28;20354;-70
2023/08/04 07:24:03;;;;;;;;;;;17.90;98.20;;;;;;5095192;28;19923;-71
2023/08/04 07:26:30;;;;;;;;;;;17.90;98.10;;;;;;5088426;28;19969;-69
2023/08/04 07:28:56;;;;;;;;;;;18.00;98.10;;;;;;5087935;28;19912;-69
2023/08/04 07:31:21;;;;;;;;;;;18.00;98.20;;;;;;5086825;28;20517;-70
2023/08/04 07:33:47;;;;;;;;;;;18.10;98.30;;;;;;5088304;28;19913;-69
2023/08/04 07:36:12;;;;;;;;;;;18.10;98.10;;;;;;5088538;28;19912;-69
2023/08/04 07:38:38;;;;;;;;;;;18.20;98.20;;;;;;5081608;28;19926;-70
2023/08/04 07:41:03;;;;;;;;;;;18.20;98.10;;;;;;5090630;28;19916;-69
2023/08/04 07:43:29;;;;;;;;;;;18.20;98.10;;;;;;5109210;28;19912;-70
2023/08/04 07:45:54;;;;;;;;;;;18.20;98.10;;;;;;5108510;28;19916;-69
2023/08/04 07:48:21;;;;;;;;;;;18.20;97.90;;;;;;5108146;28;19964;-69
2023/08/04 07:50:47;;;;;;;;;;;18.30;98.10;;;;;;5050059;28;19912;-70
2023/08/04 07:53:13;;;;;;;;;;;18.40;98.00;;;;;;5101718;28;19915;-69
2023/08/04 07:55:39;;;;;;;;;;;18.40;97.80;;;;;;5090338;28;20110;-70
2023/08/04 07:58:08;;;;;;;;;;;18.40;98.10;;;;;;5088266;28;19912;-70
2023/08/04 08:00:34;;;;;;;;;;;18.40;98.10;;;;;;5082367;28;19965;-69
2023/08/04 08:03:00;;;;;;;;;;;18.40;98.10;;;;;;5087629;28;19912;-69
2023/08/04 08:05:25;;;;;;;;;;;18.40;98.20;;;;;;5069937;28;19931;-70
2023/08/04 08:07:51;;;;;;;;;;;18.40;98.00;;;;;;5092279;28;20030;-69
2023/08/04 08:10:17;;;;;;;;;;;18.40;98.00;;;;;;5088359;28;19958;-69
2023/08/04 08:12:43;;;;;;;;;;;18.50;98.00;;;;;;5088139;28;19977;-69
2023/08/04 08:15:08;;;;;;;;;;;18.50;97.90;;;;;;5107587;28;19920;-70
2023/08/04 08:17:34;;;;;;;;;;;18.50;97.80;;;;;;5108101;28;19914;-70
2023/08/04 08:19:59;;;;;;;;;;;18.60;97.80;;;;;;5079834;28;19965;-69
2023/08/04 08:22:25;;;;;;;;;;;18.50;97.70;;;;;;5068186;28;19917;-69
2023/08/04 08:24:54;;;;;;;;;;;18.60;97.80;;;;;;5081227;28;19920;-70
2023/08/04 08:27:19;;;;;;;;;;;18.60;97.80;;;;;;5086610;28;19920;-69
2023/08/04 08:29:45;;;;;;;;;;;18.60;97.70;;;;;;5086687;28;20392;-70
2023/08/04 08:32:10;;;;;;;;;;;18.70;97.60;;;;;;5086506;28;19919;-69
2023/08/04 08:34:36;;;;;;;;;;;18.70;97.40;;;;;;5086112;28;19961;-70
2023/08/04 08:37:02;;;;;;;;;;;18.90;97.40;;;;;;5088475;28;19912;-69
2023/08/04 08:39:28;;;;;;;;;;;18.90;97.20;;;;;;5090707;28;20003;-71
2023/08/04 08:41:54;;;;;;;;;;;18.90;97.30;;;;;;5092880;28;20369;-70
2023/08/04 08:44:20;;;;;;;;;;;18.90;97.20;;;;;;5091819;28;19923;-70
2023/08/04 08:46:45;;;;;;;;;;;18.90;97.30;;;;;;5090743;28;19912;-69
2023/08/04 08:49:11;;;;;;;;;;;18.90;97.10;;;;;;5083914;28;19970;-69
2023/08/04 08:51:40;;;;;;;;;;;19.00;97.10;;;;;;5072522;28;20030;-69
2023/08/04 08:54:06;;;;;;;;;;;19.00;97.10;;;;;;5085862;28;20401;-70
2023/08/04 08:56:33;;;;;;;;;;;19.10;96.90;;;;;;5067507;28;19919;-69
2023/08/04 08:58:58;;;;;;;;;;;19.10;96.80;;;;;;5067551;28;19923;-70
2023/08/04 09:01:24;;;;;;;;;;;19.20;96.60;;;;;;5081337;28;19923;-71
2023/08/04 09:03:50;;;;;;;;;;;19.20;96.90;;;;;;5070627;28;20007;-70
2023/08/04 09:06:15;;;;;;;;;;;19.30;96.70;;;;;;5063488;28;19916;-70
2023/08/04 09:08:41;;;;;;;;;;;19.20;96.60;;;;;;5089885;28;19927;-71
2023/08/04 09:11:06;;;;;;;;;;;19.30;96.80;;;;;;5095464;28;20363;-70
2023/08/04 09:13:32;;;;;;;;;;;19.30;96.70;;;;;;5110708;28;19964;-70
2023/08/04 09:16:01;;;;;;;;;;;19.40;96.60;;;;;;5111422;28;19916;-70
2023/08/04 09:18:29;;;;;;;;;;;19.40;96.60;;;;;;5108971;28;19912;-70
2023/08/04 09:20:57;;;;;;;;;;;19.40;96.60;;;;;;5052522;28;20323;-70
2023/08/04 09:23:22;;;;;;;;;;;19.50;96.60;;;;;;5070306;28;20031;-71
2023/08/04 09:25:53;;;;;;;;;;;19.50;96.60;;;;;;5076597;28;20022;-70
2023/08/04 09:28:18;;;;;;;;;;;19.50;96.60;;;;;;5103970;28;19915;-70
2023/08/04 09:31:04;;;;;;;;;;;19.50;96.60;;;;;;5088077;28;19959;-71
2023/08/04 09:33:30;;;;;;;;;;;19.50;96.50;;;;;;5084233;28;19955;-70
2023/08/04 09:36:06;;;;;;;;;;;19.60;96.40;;;;;;5090756;28;19966;-70
2023/08/04 09:38:31;;;;;;;;;;;19.60;96.40;;;;;;5104848;28;19911;-70
2023/08/04 09:41:01;;;;;;;;;;;19.70;96.30;;;;;;5110497;28;19915;-70
2023/08/04 09:43:27;;;;;;;;;;;19.70;96.30;;;;;;5091052;28;19966;-70
2023/08/04 09:46:00;;;;;;;;;;;19.70;96.20;;;;;;5090638;28;19920;-71
2023/08/04 09:48:26;;;;;;;;;;;19.80;96.20;;;;;;5090497;28;19950;-70
2023/08/04 09:51:04;;;;;;;;;;;19.70;96.00;;;;;;5070570;28;19944;-70
2023/08/04 09:53:29;;;;;;;;;;;19.80;96.20;;;;;;5083589;28;20012;-70
2023/08/04 09:55:55;;;;;;;;;;;19.80;95.90;;;;;;5088358;28;19974;-70
2023/08/04 09:58:21;;;;;;;;;;;19.90;95.80;;;;;;5091098;28;19916;-71
2023/08/04 10:00:47;;;;;;;;;;;19.90;95.90;;;;;;5084917;28;19919;-70
2023/08/04 10:03:12;;;;;;;;;;;19.90;96.00;;;;;;5085715;28;20542;-70
2023/08/04 10:05:38;;;;;;;;;;;19.90;95.70;;;;;;5089962;28;19955;-70
2023/08/04 10:08:05;;;;;;;;;;;20.00;95.70;;;;;;5089749;28;19927;-70
2023/08/04 10:10:31;;;;;;;;;;;20.00;95.70;;;;;;5090292;28;19939;-70
2023/08/04 10:12:56;;;;;;;;;;;20.00;95.70;;;;;;5089148;28;20553;-70
2023/08/04 10:15:22;;;;;;;;;;;20.10;95.60;;;;;;5090266;28;20011;-70
2023/08/04 10:17:48;;;;;;;;;;;20.10;95.30;;;;;;5089579;28;20053;-70
2023/08/04 10:20:13;;;;;;;;;;;20.10;95.40;;;;;;5073183;28;20285;-70
2023/08/04 10:22:41;;;;;;;;;;;20.20;95.40;;;;;;5072812;28;19921;-70
2023/08/04 10:25:15;;;;;;;;;;;20.30;95.10;;;;;;5082842;28;19920;-70
2023/08/04 10:27:47;;;;;;;;;;;20.40;94.70;;;;;;5084954;28;19943;-70
2023/08/04 10:30:13;;;;;;;;;;;20.50;94.60;;;;;;5088359;28;19919;-71
2023/08/04 10:32:39;;;;;;;;;;;20.50;94.30;;;;;;5089831;28;20296;-70
2023/08/04 10:35:05;;;;;;;;;;;20.50;94.90;;;;;;5094578;28;19961;-70
2023/08/04 10:37:43;;;;;;;;;;;20.50;95.00;;;;;;5084806;28;20417;-71
2023/08/04 10:40:10;;;;;;;;;;;20.50;94.90;;;;;;5089498;28;19912;-71
2023/08/04 10:42:55;;;;;;;;;;;20.50;94.40;;;;;;5089362;28;20002;-71
2023/08/04 10:45:21;;;;;;;;;;;20.50;94.70;;;;;;5088973;28;20870;-71
2023/08/04 10:47:47;;;;;;;;;;;20.60;94.50;;;;;;5090361;28;20010;-70
2023/08/04 10:50:13;;;;;;;;;;;20.60;94.80;;;;;;5089160;28;19935;-70
2023/08/04 10:52:39;;;;;;;;;;;20.70;94.70;;;;;;5088908;28;19982;-70
2023/08/04 10:55:06;;;;;;;;;;;20.70;94.70;;;;;;5075569;28;20018;-70
2023/08/04 10:57:32;;;;;;;;;;;20.70;94.40;;;;;;5068576;28;20050;-70
2023/08/04 10:59:58;;;;;;;;;;;20.70;94.80;;;;;;5086213;28;20272;-70
2023/08/04 11:02:24;;;;;;;;;;;20.70;94.60;;;;;;5089881;28;19969;-70
2023/08/04 11:04:51;;;;;;;;;;;20.70;94.50;;;;;;5096110;28;19912;-70
2023/08/04 11:07:17;;;;;;;;;;;20.70;94.70;;;;;;5088593;28;19912;-70
2023/08/04 11:09:44;;;;;;;;;;;20.80;94.50;;;;;;5088572;28;20596;-70
2023/08/04 11:12:10;;;;;;;;;;;20.80;94.60;;;;;;5088719;28;19965;-71
2023/08/04 11:14:36;;;;;;;;;;;20.90;94.30;;;;;;5101824;28;19920;-71
2023/08/04 11:17:02;;;;;;;;;;;20.90;94.50;;;;;;5107558;28;19922;-70
2023/08/04 11:19:32;;;;;;;;;;;20.90;94.20;;;;;;5088217;28;19912;-71
2023/08/04 11:22:05;;;;;;;;;;;21.00;93.60;;;;;;5088421;28;19919;-70
2023/08/04 11:24:31;;;;;;;;;;;20.90;94.40;;;;;;5088324;28;19947;-70
2023/08/04 11:26:57;;;;;;;;;;;21.00;94.20;;;;;;5088309;28;19912;-70
2023/08/04 11:29:24;;;;;;;;;;;21.10;94.30;;;;;;5091550;28;20443;-70
2023/08/04 11:31:50;;;;;;;;;;;21.20;94.10;;;;;;5090421;28;19916;-70
2023/08/04 11:34:16;;;;;;;;;;;21.20;93.90;;;;;;5100222;28;19912;-71
2023/08/04 11:36:42;;;;;;;;;;;21.30;93.80;;;;;;5088124;28;19964;-71
2023/08/04 11:39:07;;;;;;;;;;;21.40;93.80;;;;;;5088055;28;19995;-71
2023/08/04 11:41:33;;;;;;;;;;;21.60;93.40;;;;;;5088182;28;20315;-71
2023/08/04 11:43:59;;;;;;;;;;;21.70;93.50;;;;;;5088068;28;19916;-71
2023/08/04 11:46:24;;;;;;;;;;;21.80;93.20;;;;;;5094045;28;19916;-71
2023/08/04 11:48:50;;;;;;;;;;;21.80;92.90;;;;;;5098977;28;20676;-71
2023/08/04 11:51:15;;;;;;;;;;;22.00;92.40;;;;;;5067934;28;19918;-71
2023/08/04 11:53:43;;;;;;;;;;;22.10;92.90;;;;;;5084719;28;19916;-71
2023/08/04 11:56:09;;;;;;;;;;;22.20;92.70;;;;;;5067273;28;20381;-71
2023/08/04 11:58:36;;;;;;;;;;;22.30;91.80;;;;;;5067832;28;19919;-71
2023/08/04 12:01:02;;;;;;;;;;;22.30;92.60;;;;;;5067827;28;19916;-71
2023/08/04 12:03:41;;;;;;;;;;;22.30;92.70;;;;;;5083063;28;19916;-71
2023/08/04 12:06:20;;;;;;;;;;;22.20;92.90;;;;;;5087581;28;19934;-72
2023/08/04 12:08:48;;;;;;;;;;;22.30;92.70;;;;;;5087642;28;20296;-72
2023/08/04 12:11:14;;;;;;;;;;;22.30;92.30;;;;;;5079967;28;20022;-71
2023/08/04 12:13:41;;;;;;;;;;;22.40;92.70;;;;;;5107579;28;20002;-71
2023/08/04 12:16:07;;;;;;;;;;;22.30;92.60;;;;;;5103227;28;19916;-71
2023/08/04 12:18:33;;;;;;;;;;;22.40;91.70;;;;;;5069464;28;19957;-71
2023/08/04 12:20:58;;;;;;;;;;;22.40;93.20;;;;;;5088057;28;19923;-71
2023/08/04 12:23:24;;;;;;;;;;;22.50;93.20;;;;;;5087779;28;20328;-71
2023/08/04 12:25:50;;;;;;;;;;;22.40;93.70;;;;;;5087357;28;19960;-71
2023/08/04 12:28:15;;;;;;;;;;;22.50;93.50;;;;;;5087864;28;20314;-72
2023/08/04 12:30:41;;;;;;;;;;;22.60;92.80;;;;;;5087618;28;20006;-71
2023/08/04 12:33:07;;;;;;;;;;;22.70;93.30;;;;;;5087704;28;20710;-71
2023/08/04 12:35:32;;;;;;;;;;;22.80;92.40;;;;;;5087687;28;19926;-71
2023/08/04 12:38:00;;;;;;;;;;;22.90;92.00;;;;;;5069246;28;19916;-72
2023/08/04 12:40:25;;;;;;;;;;;23.10;93.00;;;;;;5087667;28;19915;-72
2023/08/04 12:42:50;;;;;;;;;;;23.20;91.90;;;;;;5087534;28;19912;-72
2023/08/04 12:45:16;;;;;;;;;;;23.30;92.90;;;;;;5087621;28;19954;-72
2023/08/04 12:47:41;;;;;;;;;;;23.40;91.70;;;;;;5087284;28;19912;-72
2023/08/04 12:50:07;;;;;;;;;;;23.30;92.60;;;;;;5087209;28;19912;-72
2023/08/04 12:52:33;;;;;;;;;;;23.30;92.20;;;;;;5088640;28;19916;-72
2023/08/04 12:54:59;;;;;;;;;;;23.30;91.10;;;;;;5075077;28;19917;-72
2023/08/04 12:57:24;;;;;;;;;;;23.40;92.20;;;;;;5067209;28;19919;-72
2023/08/04 12:59:50;;;;;;;;;;;23.40;91.60;;;;;;5067292;28;19939;-71
2023/08/04 13:02:15;;;;;;;;;;;23.50;92.30;;;;;;5067131;28;20292;-71
2023/08/04 13:04:41;;;;;;;;;;;23.60;91.90;;;;;;5078697;28;19912;-71
2023/08/04 13:07:06;;;;;;;;;;;23.70;92.50;;;;;;5068811;28;19918;-71
2023/08/04 13:09:32;;;;;;;;;;;23.80;93.00;;;;;;5088221;28;19916;-71
2023/08/04 13:11:57;;;;;;;;;;;23.90;92.70;;;;;;5087135;28;20005;-71
2023/08/04 13:14:23;;;;;;;;;;;24.00;92.80;;;;;;5086995;28;20503;-71
2023/08/04 13:16:48;;;;;;;;;;;24.00;92.10;;;;;;5087098;28;19951;-71
2023/08/04 13:19:14;;;;;;;;;;;24.00;92.30;;;;;;5078624;28;19912;-72
2023/08/04 13:21:39;;;;;;;;;;;23.90;92.60;;;;;;5086948;28;20286;-71
2023/08/04 13:24:05;;;;;;;;;;;23.90;92.20;;;;;;5092684;28;19916;-71
2023/08/04 13:26:30;;;;;;;;;;;23.90;92.10;;;;;;5085867;28;19912;-72
2023/08/04 13:28:56;;;;;;;;;;;23.70;92.50;;;;;;5089085;28;20355;-71
2023/08/04 13:31:21;;;;;;;;;;;23.70;92.40;;;;;;5090076;28;20651;-72
2023/08/04 13:33:47;;;;;;;;;;;23.60;92.60;;;;;;5090169;28;19912;-71
2023/08/04 13:36:12;;;;;;;;;;;23.50;92.90;;;;;;5090067;28;19919;-71
2023/08/04 13:38:38;;;;;;;;;;;23.40;93.30;;;;;;5089813;28;20349;-71
2023/08/04 13:41:03;;;;;;;;;;;23.30;92.90;;;;;;5090226;28;19916;-71
2023/08/04 13:43:29;;;;;;;;;;;23.20;92.90;;;;;;5090263;28;19912;-71
2023/08/04 13:45:55;;;;;;;;;;;23.20;92.90;;;;;;5089620;28;20329;-71
2023/08/04 13:48:20;;;;;;;;;;;23.10;92.50;;;;;;5089945;28;20377;-71
2023/08/04 13:50:46;;;;;;;;;;;23.10;92.90;;;;;;5108635;28;20702;-71
2023/08/04 13:53:11;;;;;;;;;;;23.00;92.20;;;;;;5110283;28;19951;-71
2023/08/04 13:55:38;;;;;;;;;;;22.90;93.20;;;;;;5093625;28;19916;-71
2023/08/04 13:58:03;;;;;;;;;;;22.90;93.50;;;;;;5087446;28;19958;-71
2023/08/04 14:00:29;;;;;;;;;;;22.80;93.70;;;;;;5089845;28;20324;-71
2023/08/04 14:02:54;;;;;;;;;;;22.80;93.30;;;;;;5089392;28;19912;-71
2023/08/04 14:05:19;;;;;;;;;;;22.80;93.40;;;;;;5089449;28;19912;-71
2023/08/04 14:07:45;;;;;;;;;;;22.80;92.90;;;;;;5089478;28;20322;-71
2023/08/04 14:10:10;;;;;;;;;;;22.80;92.80;;;;;;5097558;28;19916;-71